createdAt,value
2023-07-28T00:01:03.567Z,2.30
2023-07-28T00:03:32.881Z,2.30
2023-07-28T00:06:01.965Z,1.95
2023-07-28T00:08:28.876Z,2.20
2023-07-28T00:10:55.545Z,1.90
2023-07-28T00:13:22.246Z,2.25
2023-07-28T00:15:48.918Z,2.00
2023-07-28T00:18:15.604Z,2.35
2023-07-28T00:20:44.768Z,2.08
2023-07-28T00:23:11.497Z,2.30
2023-07-28T00:25:38.289Z,2.20
2023-07-28T00:28:05.139Z,2.13
2023-07-28T00:30:34.237Z,2.08
2023-07-28T00:33:01.027Z,2.10
2023-07-28T00:35:27.717Z,2.17
2023-07-28T00:37:56.633Z,2.22
2023-07-28T00:40:23.979Z,2.63
2023-07-28T00:42:51.014Z,2.35
2023-07-28T00:45:19.939Z,2.10
2023-07-28T00:47:47.183Z,2.13
2023-07-28T00:50:16.588Z,1.88
2023-07-28T00:52:43.567Z,2.17
2023-07-28T00:55:10.626Z,2.20
2023-07-28T00:57:37.603Z,2.03
2023-07-28T01:00:07.373Z,2.00
2023-07-28T01:02:34.117Z,1.98
2023-07-28T01:05:00.929Z,2.38
2023-07-28T01:07:38.809Z,2.10
2023-07-28T01:10:31.988Z,2.25
2023-07-28T01:12:58.763Z,2.40
2023-07-28T01:15:26.282Z,2.33
2023-07-28T01:17:53.362Z,2.17
2023-07-28T01:20:20.986Z,2.30
2023-07-28T01:23:10.790Z,2.35
2023-07-28T01:25:50.330Z,2.00
2023-07-28T01:28:19.271Z,2.20
2023-07-28T01:30:46.394Z,2.33
2023-07-28T01:33:13.098Z,2.15
2023-07-28T01:35:40.063Z,2.30
2023-07-28T01:38:07.079Z,2.70
2023-07-28T01:40:36.125Z,2.40
2023-07-28T01:43:02.991Z,2.50
2023-07-28T01:45:29.762Z,2.22
2023-07-28T01:47:56.501Z,2.70
2023-07-28T01:50:23.378Z,2.40
2023-07-28T01:52:52.460Z,2.40
2023-07-28T01:55:21.703Z,2.45
2023-07-28T01:57:56.175Z,2.60
2023-07-28T02:00:25.112Z,2.38
2023-07-28T02:02:52.639Z,2.13
2023-07-28T02:05:19.730Z,2.50
2023-07-28T02:07:47.218Z,2.30
2023-07-28T02:10:13.894Z,1.90
2023-07-28T02:12:41.036Z,2.00
2023-07-28T02:15:08.494Z,2.03
2023-07-28T02:17:35.732Z,2.15
2023-07-28T02:20:04.440Z,1.80
2023-07-28T02:22:31.449Z,2.13
2023-07-28T02:25:02.645Z,1.98
2023-07-28T02:27:29.754Z,1.80
2023-07-28T02:29:58.677Z,1.95
2023-07-28T02:32:25.463Z,1.80
2023-07-28T02:34:52.160Z,1.80
2023-07-28T02:37:23.645Z,1.98
2023-07-28T02:39:50.403Z,1.60
2023-07-28T02:42:17.137Z,2.28
2023-07-28T02:44:44.159Z,1.95
2023-07-28T02:47:10.848Z,1.70
2023-07-28T02:49:37.567Z,1.75
2023-07-28T02:52:04.514Z,1.83
2023-07-28T02:54:31.500Z,2.00
2023-07-28T02:56:58.290Z,1.90
2023-07-28T02:59:25.001Z,1.70
2023-07-28T03:01:53.059Z,1.83
2023-07-28T03:04:21.478Z,1.75
2023-07-28T03:06:48.867Z,1.85
2023-07-28T03:09:16.254Z,1.95
2023-07-28T03:11:45.911Z,1.83
2023-07-28T03:14:14.037Z,2.10
2023-07-28T03:16:42.339Z,1.75
2023-07-28T03:19:11.411Z,1.90
2023-07-28T03:21:40.099Z,1.80
2023-07-28T03:24:09.656Z,2.20
2023-07-28T03:26:36.803Z,1.98
2023-07-28T03:29:03.843Z,1.95
2023-07-28T03:31:30.791Z,1.75
2023-07-28T03:33:57.524Z,2.05
2023-07-28T03:36:24.342Z,2.17
2023-07-28T03:38:51.137Z,1.40
2023-07-28T03:41:17.904Z,1.45
2023-07-28T03:43:44.643Z,1.70
2023-07-28T03:46:11.443Z,1.88
2023-07-28T03:48:38.335Z,1.60
2023-07-28T03:51:05.362Z,1.70
2023-07-28T03:53:32.202Z,2.08
2023-07-28T03:55:59.387Z,1.67
2023-07-28T03:58:26.629Z,1.73
2023-07-28T04:00:54.363Z,1.80
2023-07-28T04:03:21.565Z,1.60
2023-07-28T04:05:50.799Z,1.58
2023-07-28T04:08:17.542Z,2.10
2023-07-28T04:10:44.314Z,1.73
2023-07-28T04:13:13.400Z,1.95
2023-07-28T04:15:40.197Z,1.70
2023-07-28T04:18:09.170Z,1.73
2023-07-28T04:20:35.934Z,1.83
2023-07-28T04:23:02.886Z,1.83
2023-07-28T04:25:31.024Z,1.40
2023-07-28T04:27:57.830Z,1.73
2023-07-28T04:30:27.589Z,1.40
2023-07-28T04:32:54.338Z,1.70
2023-07-28T04:35:21.078Z,1.67
2023-07-28T04:37:47.862Z,1.80
2023-07-28T04:40:17.428Z,1.90
2023-07-28T04:42:44.300Z,1.77
2023-07-28T04:45:11.105Z,1.50
2023-07-28T04:47:37.905Z,1.92
2023-07-28T04:50:05.030Z,1.70
2023-07-28T04:52:31.688Z,1.77
2023-07-28T04:54:58.392Z,1.90
2023-07-28T04:57:25.201Z,1.73
2023-07-28T04:59:51.853Z,1.95
2023-07-28T05:02:19.253Z,2.08
2023-07-28T05:04:46.076Z,1.70
2023-07-28T05:07:12.985Z,1.95
2023-07-28T05:09:39.782Z,1.85
2023-07-28T05:12:06.783Z,1.85
2023-07-28T05:14:35.780Z,1.42
2023-07-28T05:17:04.700Z,1.60
2023-07-28T05:19:31.419Z,1.45
2023-07-28T05:22:00.546Z,1.50
2023-07-28T05:24:29.476Z,1.85
2023-07-28T05:26:58.728Z,1.50
2023-07-28T05:29:25.467Z,1.40
2023-07-28T05:31:52.382Z,1.40
2023-07-28T05:34:21.239Z,1.55
2023-07-28T05:36:50.784Z,1.45
2023-07-28T05:39:17.504Z,1.48
2023-07-28T05:41:47.256Z,1.25
2023-07-28T05:44:14.238Z,1.70
2023-07-28T05:46:41.039Z,1.33
2023-07-28T05:49:07.837Z,1.10
2023-07-28T05:51:34.732Z,1.00
2023-07-28T05:54:01.691Z,0.90
2023-07-28T05:56:28.461Z,1.17
2023-07-28T05:58:56.692Z,1.00
2023-07-28T06:01:23.514Z,1.00
2023-07-28T06:03:51.107Z,1.20
2023-07-28T06:06:17.858Z,1.13
2023-07-28T06:08:44.605Z,0.80
2023-07-28T06:11:11.356Z,0.90
2023-07-28T06:13:40.409Z,0.90
2023-07-28T06:16:07.743Z,1.10
2023-07-28T06:18:34.534Z,1.20
2023-07-28T06:21:01.236Z,1.00
2023-07-28T06:23:28.525Z,1.13
2023-07-28T06:25:56.088Z,1.20
2023-07-28T06:28:23.060Z,1.13
2023-07-28T06:30:57.649Z,1.33
2023-07-28T06:33:25.869Z,1.42
2023-07-28T06:35:53.355Z,1.30
2023-07-28T06:38:20.306Z,1.48
2023-07-28T06:40:47.156Z,1.35
2023-07-28T06:43:13.932Z,1.48
2023-07-28T06:45:40.740Z,1.58
2023-07-28T06:48:07.602Z,1.52
2023-07-28T06:50:34.529Z,1.55
2023-07-28T06:53:01.266Z,1.70
2023-07-28T06:55:30.051Z,1.35
2023-07-28T06:57:59.028Z,1.60
2023-07-28T07:00:28.345Z,1.42
2023-07-28T07:02:55.228Z,1.60
2023-07-28T07:05:22.167Z,1.73
2023-07-28T07:07:51.685Z,1.60
2023-07-28T07:10:21.786Z,1.75
2023-07-28T07:12:49.152Z,1.60
2023-07-28T07:15:18.478Z,1.67
2023-07-28T07:17:45.397Z,1.42
2023-07-28T07:20:12.729Z,1.48
2023-07-28T07:22:40.175Z,1.65
2023-07-28T07:25:09.969Z,1.50
2023-07-28T07:27:36.923Z,1.50
2023-07-28T07:30:05.212Z,2.13
2023-07-28T07:32:34.862Z,1.65
2023-07-28T07:35:04.181Z,1.52
2023-07-28T07:37:33.235Z,1.83
2023-07-28T07:40:02.065Z,1.70
2023-07-28T07:42:42.233Z,1.80
2023-07-28T07:45:10.299Z,1.33
2023-07-28T07:47:37.053Z,2.05
2023-07-28T07:50:06.846Z,1.73
2023-07-28T07:52:33.709Z,1.40
2023-07-28T07:55:00.717Z,1.67
2023-07-28T07:57:30.194Z,1.80
2023-07-28T07:59:59.050Z,1.50
2023-07-28T08:02:26.229Z,1.90
2023-07-28T08:04:55.190Z,1.70
2023-07-28T08:07:22.373Z,1.98
2023-07-28T08:09:51.668Z,1.80
2023-07-28T08:12:18.872Z,1.70
2023-07-28T08:14:47.181Z,2.10
2023-07-28T08:17:13.948Z,2.05
2023-07-28T08:19:40.748Z,1.77
2023-07-28T08:22:08.204Z,1.90
2023-07-28T08:24:35.060Z,1.95
2023-07-28T08:27:01.848Z,2.05
2023-07-28T08:29:28.635Z,2.03
2023-07-28T08:31:55.623Z,1.73
2023-07-28T08:34:22.482Z,2.03
2023-07-28T08:36:49.570Z,2.33
2023-07-28T08:39:16.333Z,2.50
2023-07-28T08:41:43.050Z,2.10
2023-07-28T08:44:10.109Z,1.90
2023-07-28T08:46:37.634Z,2.00
2023-07-28T08:49:04.468Z,2.03
2023-07-28T08:51:31.394Z,2.42
2023-07-28T08:53:58.223Z,2.22
2023-07-28T08:56:25.793Z,2.50
2023-07-28T08:59:00.298Z,2.40
2023-07-28T09:01:27.208Z,2.38
2023-07-28T09:03:55.400Z,2.50
2023-07-28T09:06:34.803Z,2.60
2023-07-28T09:09:07.874Z,2.53
2023-07-28T09:11:34.830Z,2.47
2023-07-28T09:14:12.264Z,2.58
2023-07-28T09:16:39.017Z,2.60
2023-07-28T09:19:12.767Z,2.50
2023-07-28T09:24:12.123Z,2.78
2023-07-28T09:26:43.821Z,1.98
2023-07-28T09:29:21.698Z,2.22
2023-07-28T09:31:50.775Z,2.20
2023-07-28T09:34:28.624Z,1.95
2023-07-28T09:36:56.074Z,2.00
2023-07-28T09:39:27.633Z,1.90
2023-07-28T09:41:59.736Z,1.85
2023-07-28T09:44:29.116Z,1.83
2023-07-28T09:46:57.739Z,1.60
2023-07-28T09:49:37.157Z,1.83
2023-07-28T09:52:09.443Z,1.90
2023-07-28T09:54:44.144Z,1.98
2023-07-28T09:57:15.188Z,1.95
2023-07-28T09:59:46.500Z,1.75
2023-07-28T10:02:16.108Z,1.60
2023-07-28T10:04:43.160Z,1.90
2023-07-28T10:07:13.861Z,2.08
2023-07-28T10:09:41.144Z,1.95
2023-07-28T10:12:18.206Z,2.08
2023-07-28T10:14:45.012Z,1.75
2023-07-28T10:17:17.649Z,1.70
2023-07-28T10:19:47.046Z,1.40
2023-07-28T10:22:14.005Z,1.83
2023-07-28T10:25:01.270Z,1.70
2023-07-28T10:27:45.242Z,1.40
2023-07-28T10:32:50.315Z,1.25
2023-07-28T10:35:32.063Z,1.30
2023-07-28T10:37:59.207Z,1.23
2023-07-28T10:40:36.437Z,1.35
2023-07-28T10:43:06.414Z,1.30
2023-07-28T10:45:33.890Z,1.20
2023-07-28T10:48:01.756Z,3.17
2023-07-28T10:50:32.606Z,1.20
2023-07-28T10:53:04.086Z,1.50
2023-07-28T10:55:31.486Z,1.25
2023-07-28T10:57:59.848Z,1.25
2023-07-28T11:00:26.758Z,1.13
2023-07-28T11:02:55.397Z,1.65
2023-07-28T11:05:32.391Z,0.90
2023-07-28T11:08:03.295Z,1.08
2023-07-28T11:10:33.240Z,1.25
2023-07-28T11:13:06.827Z,1.10
2023-07-28T11:15:43.274Z,1.10
2023-07-28T11:18:11.002Z,1.10
2023-07-28T11:20:37.972Z,1.00
2023-07-28T11:23:06.275Z,0.98
2023-07-28T11:25:34.810Z,1.10
2023-07-28T11:28:07.840Z,0.93
2023-07-28T11:30:41.871Z,0.93
2023-07-28T11:33:13.071Z,1.02
2023-07-28T11:35:47.688Z,0.85
2023-07-28T11:38:16.382Z,1.25
2023-07-28T11:40:43.411Z,0.98
2023-07-28T11:43:12.415Z,1.02
2023-07-28T11:45:39.176Z,0.63
2023-07-28T11:48:07.695Z,0.82
2023-07-28T11:50:43.075Z,0.93
2023-07-28T11:53:13.731Z,1.33
2023-07-28T11:55:42.768Z,1.05
2023-07-28T11:58:10.648Z,1.30
2023-07-28T12:00:39.305Z,0.93
2023-07-28T12:03:14.153Z,1.50
2023-07-28T12:08:13.370Z,1.67
2023-07-28T12:13:32.873Z,1.88
2023-07-28T12:21:04.024Z,2.22
2023-07-28T12:26:01.011Z,2.30
2023-07-28T12:28:27.904Z,2.20
2023-07-28T12:31:00.498Z,2.45
2023-07-28T12:36:25.097Z,3.03
2023-07-28T12:38:46.748Z,2.28
2023-07-28T12:41:13.502Z,2.60
2023-07-28T12:46:11.792Z,3.08
2023-07-28T12:48:48.119Z,2.92
2023-07-28T12:51:30.883Z,2.95
2023-07-28T12:53:58.023Z,3.13
2023-07-28T13:01:26.667Z,3.00
2023-07-28T13:03:55.739Z,2.92
2023-07-28T13:06:22.657Z,3.17
2023-07-28T13:11:19.065Z,3.05
2023-07-28T13:13:45.956Z,3.00
2023-07-28T13:16:13.457Z,3.00
2023-07-28T13:18:40.938Z,2.63
2023-07-28T13:21:07.779Z,2.50
2023-07-28T13:23:34.550Z,2.28
2023-07-28T13:26:01.389Z,2.28
2023-07-28T13:28:28.388Z,2.40
2023-07-28T13:30:55.371Z,2.15
2023-07-28T13:33:24.740Z,2.00
2023-07-28T13:35:51.822Z,2.10
2023-07-28T13:38:18.566Z,1.90
2023-07-28T13:40:49.748Z,1.77
2023-07-28T13:43:17.839Z,2.08
2023-07-28T13:45:47.121Z,1.63
2023-07-28T13:58:25.557Z,1.73
2023-07-28T14:00:52.583Z,2.03
2023-07-28T14:03:22.165Z,1.70
2023-07-28T14:05:51.434Z,1.70
2023-07-28T14:08:18.175Z,1.02
2023-07-28T14:10:46.367Z,1.42
2023-07-28T14:13:13.766Z,1.30
2023-07-28T14:15:41.757Z,1.33
2023-07-28T14:18:08.776Z,1.40
2023-07-28T14:20:35.841Z,1.20
2023-07-28T14:23:03.108Z,1.40
2023-07-28T14:25:29.896Z,1.15
2023-07-28T14:27:56.892Z,1.48
2023-07-28T14:30:26.555Z,1.30
2023-07-28T14:32:53.497Z,1.50
2023-07-28T14:35:20.513Z,1.17
2023-07-28T14:37:47.680Z,1.20
2023-07-28T14:40:14.456Z,1.27
2023-07-28T14:42:41.179Z,1.52
2023-07-28T14:45:08.481Z,1.20
2023-07-28T14:47:35.175Z,1.75
2023-07-28T14:50:02.024Z,1.20
2023-07-28T14:52:28.918Z,1.58
2023-07-28T14:54:57.943Z,1.55
2023-07-28T14:57:34.582Z,1.63
2023-07-28T15:00:02.094Z,1.45
2023-07-28T15:02:28.890Z,1.58
2023-07-28T15:04:55.636Z,1.60
2023-07-28T15:07:23.896Z,1.52
2023-07-28T15:09:53.084Z,1.70
2023-07-28T15:12:19.779Z,1.63
2023-07-28T15:14:46.461Z,1.70
2023-07-28T15:17:13.264Z,1.75
2023-07-28T15:19:39.983Z,1.98
2023-07-28T15:22:09.147Z,2.00
2023-07-28T15:24:40.495Z,1.90
2023-07-28T15:27:07.344Z,1.98
2023-07-28T15:29:34.064Z,1.95
2023-07-28T15:32:00.782Z,1.90
2023-07-28T15:34:27.750Z,1.88
2023-07-28T15:36:54.460Z,1.98
2023-07-28T15:39:21.165Z,2.00
2023-07-28T15:41:50.544Z,2.00
2023-07-28T15:44:17.564Z,2.08
2023-07-28T15:46:44.585Z,2.00
2023-07-28T15:49:11.525Z,1.92
2023-07-28T15:51:38.595Z,2.25
2023-07-28T15:54:06.837Z,1.90
2023-07-28T15:56:33.939Z,1.95
2023-07-28T15:59:00.967Z,2.10
2023-07-28T16:01:30.089Z,1.92
2023-07-28T16:03:58.083Z,2.30
2023-07-28T16:06:29.932Z,2.38
2023-07-28T16:09:07.361Z,2.38
2023-07-28T16:11:42.704Z,2.50
2023-07-28T16:14:09.516Z,2.20
2023-07-28T16:16:36.793Z,2.22
2023-07-28T16:19:03.721Z,2.97
2023-07-28T16:21:30.455Z,2.47
2023-07-28T16:23:59.838Z,2.67
2023-07-28T16:26:26.933Z,2.42
2023-07-28T16:28:55.822Z,2.40
2023-07-28T16:31:22.660Z,2.55
2023-07-28T16:33:49.617Z,2.20
2023-07-28T16:36:17.404Z,2.42
2023-07-28T16:38:44.182Z,2.35
2023-07-28T16:41:10.981Z,2.42
2023-07-28T16:43:37.695Z,2.17
2023-07-28T16:46:04.529Z,2.20
2023-07-28T16:48:33.554Z,2.33
2023-07-28T16:51:02.657Z,2.40
2023-07-28T16:53:31.782Z,2.40
2023-07-28T16:56:00.709Z,2.80
2023-07-28T16:58:27.615Z,2.85
2023-07-28T17:00:56.901Z,2.70
2023-07-28T17:03:25.511Z,2.33
2023-07-28T17:05:52.748Z,2.15
2023-07-28T17:08:22.930Z,2.33
2023-07-28T17:10:52.250Z,2.30
2023-07-28T17:13:22.153Z,2.38
2023-07-28T17:15:49.975Z,2.53
2023-07-28T17:18:16.960Z,2.60
2023-07-28T17:20:43.805Z,2.75
2023-07-28T17:23:10.764Z,2.00
2023-07-28T17:25:39.949Z,2.35
2023-07-28T17:28:09.156Z,1.88
2023-07-28T17:30:35.917Z,2.10
2023-07-28T17:33:02.723Z,2.22
2023-07-28T17:35:31.757Z,1.90
2023-07-28T17:37:58.985Z,2.08
2023-07-28T17:40:27.820Z,2.00
2023-07-28T17:42:54.528Z,2.10
2023-07-28T17:45:21.222Z,2.78
2023-07-28T17:47:48.522Z,2.20
2023-07-28T17:50:17.265Z,1.85
2023-07-28T17:52:46.834Z,2.08
2023-07-28T17:55:18.395Z,1.88
2023-07-28T17:57:47.443Z,1.88
2023-07-28T18:00:15.886Z,1.95
2023-07-28T18:02:46.306Z,2.20
2023-07-28T18:05:13.155Z,2.13
2023-07-28T18:07:42.496Z,1.75
2023-07-28T18:10:09.712Z,2.30
2023-07-28T18:12:37.133Z,2.00
2023-07-28T18:15:06.117Z,2.20
2023-07-28T18:17:33.080Z,1.85
2023-07-28T18:20:02.591Z,1.88
2023-07-28T18:22:32.112Z,1.90
2023-07-28T18:24:58.947Z,2.20
2023-07-28T18:27:33.056Z,1.83
2023-07-28T18:29:59.764Z,1.90
2023-07-28T18:32:26.593Z,2.08
2023-07-28T18:34:53.466Z,1.98
2023-07-28T18:37:23.025Z,1.90
2023-07-28T18:39:49.768Z,1.80
2023-07-28T18:42:16.470Z,1.73
2023-07-28T18:44:43.262Z,1.80
2023-07-28T18:47:12.994Z,1.83
2023-07-28T18:49:41.938Z,2.05
2023-07-28T18:52:08.917Z,1.98
2023-07-28T18:54:36.036Z,1.80
2023-07-28T18:57:04.562Z,2.08
2023-07-28T18:59:31.300Z,2.10
2023-07-28T19:01:58.276Z,1.95
2023-07-28T19:04:25.097Z,1.85
2023-07-28T19:06:52.070Z,2.20
2023-07-28T19:09:19.090Z,2.10
2023-07-28T19:11:48.001Z,1.95
2023-07-28T19:14:17.985Z,1.90
2023-07-28T19:16:44.831Z,1.80
2023-07-28T19:19:14.112Z,2.10
2023-07-28T19:21:41.161Z,1.92
2023-07-28T19:24:08.004Z,2.10
2023-07-28T19:26:35.388Z,1.83
2023-07-28T19:29:04.232Z,1.80
2023-07-28T19:31:36.717Z,2.20
2023-07-28T19:34:03.757Z,1.85
2023-07-28T19:36:30.823Z,1.77
2023-07-28T19:38:57.745Z,2.00
2023-07-28T19:41:26.343Z,1.88
2023-07-28T19:43:55.274Z,1.90
2023-07-28T19:46:23.585Z,2.17
2023-07-28T19:48:50.698Z,1.75
2023-07-28T19:51:17.694Z,1.80
2023-07-28T19:53:44.479Z,1.60
2023-07-28T19:56:11.456Z,1.75
2023-07-28T19:58:38.316Z,2.00
2023-07-28T20:01:08.246Z,1.60
2023-07-28T20:03:35.149Z,2.10
2023-07-28T20:06:05.776Z,1.83
2023-07-28T20:08:32.527Z,1.95
2023-07-28T20:10:59.277Z,2.25
2023-07-28T20:13:26.094Z,1.80
2023-07-28T20:15:54.736Z,2.30
2023-07-28T20:18:24.664Z,2.13
2023-07-28T20:20:55.797Z,2.00
2023-07-28T20:23:24.764Z,2.10
2023-07-28T20:25:51.442Z,2.25
2023-07-28T20:28:20.750Z,2.17
2023-07-28T20:30:47.640Z,2.10
2023-07-28T20:33:14.425Z,1.77
2023-07-28T20:35:41.257Z,2.28
2023-07-28T20:38:10.546Z,2.40
2023-07-28T20:40:37.398Z,3.13
2023-07-28T20:43:04.232Z,3.08
2023-07-28T20:45:30.982Z,2.88
2023-07-28T20:47:57.878Z,3.13
2023-07-28T20:50:25.022Z,4.05
2023-07-28T20:52:51.755Z,3.42
2023-07-28T20:55:21.584Z,4.60
2023-07-28T20:57:48.508Z,4.78
2023-07-28T21:00:18.025Z,4.97
2023-07-28T21:02:44.820Z,5.15
2023-07-28T21:05:11.600Z,6.18
2023-07-28T21:07:38.338Z,5.93
2023-07-28T21:10:05.580Z,6.63
2023-07-28T21:12:32.263Z,7.13
2023-07-28T21:14:59.045Z,6.68
2023-07-28T21:17:25.726Z,6.28
2023-07-28T21:19:52.426Z,6.63
2023-07-28T21:22:19.732Z,6.20
2023-07-28T21:24:48.718Z,6.15
2023-07-28T21:27:15.430Z,6.00
2023-07-28T21:29:42.607Z,5.28
2023-07-28T21:32:09.418Z,5.28
2023-07-28T21:34:36.238Z,5.18
2023-07-28T21:37:02.923Z,5.50
2023-07-28T21:39:32.711Z,5.20
2023-07-28T21:41:59.465Z,4.90
2023-07-28T21:44:26.958Z,5.25
2023-07-28T21:46:53.975Z,4.95
2023-07-28T21:49:21.909Z,5.10
2023-07-28T21:51:51.121Z,5.03
2023-07-28T21:54:17.923Z,5.13
2023-07-28T21:56:44.735Z,4.93
2023-07-28T21:59:11.440Z,5.00
2023-07-28T22:01:38.160Z,4.43
2023-07-28T22:04:05.740Z,4.75
2023-07-28T22:06:32.864Z,4.57
2023-07-28T22:08:59.941Z,3.90
2023-07-28T22:11:31.362Z,4.13
2023-07-28T22:14:00.698Z,3.88
2023-07-28T22:16:29.198Z,3.40
2023-07-28T22:18:57.557Z,3.38
2023-07-28T22:21:24.390Z,3.28
2023-07-28T22:23:53.382Z,2.60
2023-07-28T22:26:20.630Z,2.33
2023-07-28T22:28:47.338Z,2.60
2023-07-28T22:31:14.121Z,2.42
2023-07-28T22:33:43.032Z,2.70
2023-07-28T22:36:09.817Z,2.10
2023-07-28T22:38:36.666Z,2.20
2023-07-28T22:41:05.883Z,1.88
2023-07-28T22:43:32.534Z,1.60
2023-07-28T22:45:59.430Z,2.17
2023-07-28T22:48:26.366Z,1.85
2023-07-28T22:50:53.475Z,1.42
2023-07-28T22:53:22.583Z,1.45
2023-07-28T22:55:49.365Z,1.60
2023-07-28T22:58:16.100Z,1.73
2023-07-28T23:00:43.178Z,1.98
2023-07-28T23:03:10.045Z,2.03
2023-07-28T23:05:38.356Z,2.10
2023-07-28T23:08:07.423Z,2.20
2023-07-28T23:10:36.515Z,2.03
2023-07-28T23:13:03.489Z,2.00
2023-07-28T23:15:30.372Z,2.00
2023-07-28T23:17:59.289Z,2.08
2023-07-28T23:20:26.083Z,2.28
2023-07-28T23:22:55.031Z,2.63
2023-07-28T23:25:21.766Z,2.13
2023-07-28T23:27:48.438Z,2.17
2023-07-28T23:30:15.172Z,2.22
2023-07-28T23:32:41.986Z,2.22
2023-07-28T23:35:09.019Z,1.92
2023-07-28T23:37:35.791Z,2.45
2023-07-28T23:40:05.078Z,2.60
2023-07-28T23:42:32.294Z,1.95
2023-07-28T23:44:59.450Z,2.05
2023-07-28T23:47:26.396Z,2.30
2023-07-28T23:49:55.298Z,1.92
2023-07-28T23:52:26.731Z,2.05
2023-07-28T23:54:53.495Z,1.98
2023-07-28T23:57:20.357Z,2.15
2023-07-28T23:59:47.977Z,2.10
